createdAt,value
2022-11-07T00:01:12.231Z,83.82
2022-11-07T00:04:14.429Z,83.61
2022-11-07T00:07:16.464Z,83.78
2022-11-07T00:10:18.504Z,83.76
2022-11-07T00:13:20.522Z,84.50
2022-11-07T00:16:22.728Z,83.77
2022-11-07T00:19:24.788Z,84.51
2022-11-07T00:22:26.864Z,83.98
2022-11-07T00:25:34.001Z,84.46
2022-11-07T00:28:41.707Z,84.41
2022-11-07T00:31:43.686Z,84.39
2022-11-07T00:34:46.030Z,84.16
2022-11-07T00:37:48.120Z,85.81
2022-11-07T00:41:01.090Z,84.72
2022-11-07T00:44:03.147Z,84.31
2022-11-07T00:47:05.203Z,84.04
2022-11-07T00:50:08.149Z,83.35
2022-11-07T00:53:10.190Z,82.98
2022-11-07T00:56:14.751Z,83.74
2022-11-07T00:59:16.830Z,84.26
2022-11-07T01:02:18.960Z,84.75
2022-11-07T01:05:21.636Z,83.53
2022-11-07T01:08:23.692Z,83.84
2022-11-07T01:11:27.083Z,83.53
2022-11-07T01:14:29.253Z,84.05
2022-11-07T01:17:31.352Z,83.49
2022-11-07T01:20:33.382Z,84.30
2022-11-07T01:23:36.061Z,83.51
2022-11-07T01:26:38.294Z,83.59
2022-11-07T01:29:40.409Z,83.14
2022-11-07T01:32:42.472Z,83.33
2022-11-07T01:35:44.584Z,84.10
2022-11-07T01:38:48.681Z,83.64
2022-11-07T01:41:50.729Z,83.13
2022-11-07T01:44:58.427Z,83.21
2022-11-07T01:48:00.803Z,83.32
2022-11-07T01:51:03.011Z,82.53
2022-11-07T01:54:05.369Z,82.41
2022-11-07T01:57:11.230Z,82.80
2022-11-07T02:00:16.075Z,83.71
2022-11-07T02:03:18.243Z,83.08
2022-11-07T02:06:43.447Z,83.68
2022-11-07T02:09:45.748Z,81.83
2022-11-07T02:12:47.785Z,82.81
2022-11-07T02:15:49.792Z,81.56
2022-11-07T02:18:51.819Z,82.93
2022-11-07T02:22:07.511Z,81.41
2022-11-07T02:25:15.592Z,82.03
2022-11-07T02:28:17.630Z,82.87
2022-11-07T02:31:19.670Z,83.20
2022-11-07T02:34:21.697Z,82.35
2022-11-07T02:37:33.261Z,82.61
2022-11-07T02:40:35.320Z,82.39
2022-11-07T02:43:39.304Z,80.76
2022-11-07T02:46:41.421Z,80.59
2022-11-07T02:49:43.460Z,80.33
2022-11-07T02:52:45.478Z,81.25
2022-11-07T02:55:47.521Z,80.96
2022-11-07T02:58:49.639Z,81.34
2022-11-07T03:01:52.174Z,79.54
2022-11-07T03:04:54.342Z,80.04
2022-11-07T03:07:56.371Z,79.56
2022-11-07T03:10:58.439Z,79.12
2022-11-07T03:14:00.536Z,80.39
2022-11-07T03:17:02.612Z,80.85
2022-11-07T03:20:05.369Z,81.58
2022-11-07T03:23:07.532Z,80.45
2022-11-07T03:26:09.577Z,80.97
2022-11-07T03:29:11.600Z,81.22
2022-11-07T03:32:13.645Z,81.05
2022-11-07T03:35:15.712Z,80.50
2022-11-07T03:38:17.726Z,81.53
2022-11-07T03:41:19.761Z,80.31
2022-11-07T03:44:21.809Z,80.36
2022-11-07T03:47:23.836Z,80.50
2022-11-07T03:50:25.886Z,80.76
2022-11-07T03:53:28.299Z,81.08
2022-11-07T03:56:30.568Z,80.03
2022-11-07T03:59:32.681Z,79.33
2022-11-07T04:02:34.954Z,78.91
2022-11-07T04:05:37.089Z,78.58
2022-11-07T04:08:39.132Z,79.90
2022-11-07T04:12:00.088Z,79.80
2022-11-07T04:15:20.813Z,80.18
2022-11-07T04:18:22.888Z,80.28
2022-11-07T04:21:24.934Z,80.13
2022-11-07T04:24:26.994Z,81.69
2022-11-07T04:27:43.913Z,80.61
2022-11-07T04:30:45.970Z,80.87
2022-11-07T04:33:48.009Z,80.88
2022-11-07T04:36:50.046Z,80.18
2022-11-07T04:39:52.088Z,79.53
2022-11-07T04:42:54.331Z,80.43
2022-11-07T04:45:56.577Z,80.11
2022-11-07T04:48:58.607Z,79.37
2022-11-07T04:52:00.682Z,80.26
2022-11-07T04:55:02.747Z,81.80
2022-11-07T04:58:04.825Z,82.35
2022-11-07T05:01:06.862Z,82.37
2022-11-07T05:04:08.949Z,83.09
2022-11-07T05:07:10.975Z,83.24
2022-11-07T05:10:27.532Z,82.95
2022-11-07T05:13:29.570Z,83.39
2022-11-07T05:16:31.874Z,80.80
2022-11-07T05:19:33.916Z,82.45
2022-11-07T05:22:56.462Z,81.32
2022-11-07T05:25:59.016Z,82.37
2022-11-07T05:29:01.069Z,81.58
2022-11-07T05:32:03.165Z,81.09
2022-11-07T05:35:06.114Z,81.06
2022-11-07T05:38:08.380Z,80.46
2022-11-07T05:41:11.124Z,79.92
2022-11-07T05:44:13.399Z,81.61
2022-11-07T05:47:15.465Z,80.78
2022-11-07T05:50:17.700Z,81.82
2022-11-07T05:53:21.397Z,82.27
2022-11-07T05:56:23.533Z,82.00
2022-11-07T05:59:25.927Z,81.76
2022-11-07T06:02:28.107Z,80.09
2022-11-07T06:05:30.270Z,82.15
2022-11-07T06:08:32.327Z,82.26
2022-11-07T06:11:34.357Z,83.09
2022-11-07T06:14:36.400Z,83.21
2022-11-07T06:17:38.626Z,83.74
2022-11-07T06:20:40.810Z,83.35
2022-11-07T06:23:43.430Z,81.88
2022-11-07T06:26:45.513Z,81.28
2022-11-07T06:29:47.563Z,81.40
2022-11-07T06:32:49.624Z,81.64
2022-11-07T06:35:51.712Z,84.78
2022-11-07T06:38:53.976Z,85.56
2022-11-07T06:41:56.008Z,86.39
2022-11-07T06:44:58.200Z,87.54
2022-11-07T06:48:00.236Z,87.18
2022-11-07T06:51:03.861Z,88.20
2022-11-07T06:54:05.951Z,87.84
2022-11-07T06:57:08.127Z,87.32
2022-11-07T07:00:11.134Z,87.81
2022-11-07T07:03:13.720Z,87.48
2022-11-07T07:06:16.930Z,87.13
2022-11-07T07:09:18.983Z,86.54
2022-11-07T07:12:21.014Z,86.63
2022-11-07T07:15:23.291Z,86.98
2022-11-07T07:18:25.732Z,87.84
2022-11-07T07:21:27.893Z,89.31
2022-11-07T07:24:29.918Z,88.73
2022-11-07T07:27:31.997Z,88.95
2022-11-07T07:30:34.025Z,89.24
2022-11-07T07:33:36.453Z,89.46
2022-11-07T07:36:38.507Z,85.11
2022-11-07T07:39:40.694Z,83.98
2022-11-07T07:42:43.479Z,84.36
2022-11-07T07:45:45.636Z,85.01
2022-11-07T07:48:47.670Z,86.34
2022-11-07T07:51:49.806Z,85.26
2022-11-07T07:54:51.862Z,86.73
2022-11-07T07:57:54.045Z,88.41
2022-11-07T08:00:59.115Z,88.85
2022-11-07T08:04:02.773Z,91.46
2022-11-07T08:07:05.095Z,90.98
2022-11-07T08:10:35.213Z,92.34
2022-11-07T08:13:30.409Z,92.15
2022-11-07T08:16:32.660Z,91.33
2022-11-07T08:19:34.698Z,92.25
2022-11-07T08:22:37.989Z,91.69
2022-11-07T08:25:40.081Z,92.93
2022-11-07T08:28:42.257Z,92.06
2022-11-07T08:31:44.330Z,91.24
2022-11-07T08:34:46.416Z,93.32
2022-11-07T08:37:48.460Z,92.34
2022-11-07T08:40:50.986Z,91.50
2022-11-07T08:43:53.017Z,91.68
2022-11-07T08:46:55.518Z,91.15
2022-11-07T08:49:57.563Z,90.15
2022-11-07T08:53:02.954Z,90.59
2022-11-07T08:56:16.488Z,90.24
2022-11-07T08:59:18.731Z,90.67
2022-11-07T09:05:42.982Z,91.80
2022-11-07T09:08:45.427Z,92.02
2022-11-07T09:11:47.497Z,92.27
2022-11-07T09:14:49.623Z,91.53
2022-11-07T09:17:51.778Z,90.62
2022-11-07T09:20:55.168Z,90.44
2022-11-07T09:23:57.733Z,89.45
2022-11-07T09:26:59.778Z,88.84
2022-11-07T09:30:03.081Z,87.60
2022-11-07T09:33:05.154Z,88.22
2022-11-07T09:36:07.718Z,87.28
2022-11-07T09:39:09.773Z,87.50
2022-11-07T09:42:52.153Z,88.30
2022-11-07T09:46:42.766Z,88.92
2022-11-07T09:49:50.888Z,88.66
2022-11-07T09:53:11.963Z,87.54
2022-11-07T09:56:14.137Z,85.88
2022-11-07T09:59:29.636Z,86.68
2022-11-07T10:02:32.875Z,89.07
2022-11-07T10:05:58.924Z,88.18
2022-11-07T10:09:45.494Z,87.48
2022-11-07T10:13:15.692Z,87.22
2022-11-07T10:16:36.562Z,86.72
2022-11-07T10:20:08.545Z,86.83
2022-11-07T10:23:50.340Z,86.54
2022-11-07T10:26:53.562Z,84.97
2022-11-07T10:29:56.333Z,83.71
2022-11-07T10:33:21.180Z,84.15
2022-11-07T10:36:28.460Z,85.23
2022-11-07T10:39:31.095Z,84.84
2022-11-07T10:42:33.137Z,85.08
2022-11-07T10:45:35.248Z,84.30
2022-11-07T10:48:37.367Z,84.84
2022-11-07T10:51:41.302Z,83.35
2022-11-07T10:54:44.963Z,84.21
2022-11-07T10:57:52.176Z,83.18
2022-11-07T11:01:08.604Z,82.79
2022-11-07T11:04:20.978Z,82.11
2022-11-07T11:07:39.070Z,80.68
2022-11-07T11:10:41.036Z,80.35
2022-11-07T11:13:43.181Z,79.84
2022-11-07T11:16:47.112Z,79.55
2022-11-07T11:19:53.382Z,80.26
2022-11-07T11:22:55.442Z,78.95
2022-11-07T11:26:05.905Z,78.85
2022-11-07T11:29:12.337Z,77.72
2022-11-07T11:32:41.521Z,76.38
2022-11-07T11:36:12.054Z,77.52
2022-11-07T11:39:49.615Z,77.88
2022-11-07T11:42:56.934Z,78.88
2022-11-07T11:46:27.981Z,78.09
2022-11-07T11:49:53.657Z,77.86
2022-11-07T11:52:55.739Z,79.42
2022-11-07T11:56:06.669Z,78.97
2022-11-07T11:59:29.634Z,78.27
2022-11-07T12:02:45.584Z,79.17
2022-11-07T12:05:56.429Z,79.90
2022-11-07T12:09:24.332Z,79.49
2022-11-07T12:12:53.526Z,80.25
2022-11-07T12:16:23.329Z,79.92
2022-11-07T12:19:54.449Z,78.97
2022-11-07T12:23:38.339Z,79.53
2022-11-07T12:27:03.427Z,80.32
2022-11-07T12:30:33.391Z,80.02
2022-11-07T12:34:00.700Z,79.30
2022-11-07T12:37:23.800Z,79.59
2022-11-07T12:41:11.597Z,78.41
2022-11-07T12:44:25.358Z,78.72
2022-11-07T12:47:33.964Z,77.92
2022-11-07T12:50:59.937Z,76.88
2022-11-07T12:54:16.531Z,76.58
2022-11-07T12:57:27.837Z,76.83
2022-11-07T13:00:30.672Z,75.82
2022-11-07T13:04:16.329Z,75.55
2022-11-07T13:07:26.016Z,74.80
2022-11-07T13:10:42.101Z,72.18
2022-11-07T13:14:00.553Z,71.08
2022-11-07T13:17:15.514Z,72.53
2022-11-07T13:20:28.254Z,71.73
2022-11-07T13:23:30.527Z,66.17
2022-11-07T13:26:46.984Z,66.57
2022-11-07T13:29:50.245Z,65.59
2022-11-07T13:32:52.359Z,60.15
2022-11-07T13:35:59.985Z,61.93
2022-11-07T13:39:02.619Z,67.67
2022-11-07T13:42:04.689Z,67.14
2022-11-07T13:45:31.342Z,60.75
2022-11-07T13:48:57.859Z,63.54
2022-11-07T13:52:06.025Z,65.29
2022-11-07T13:55:20.520Z,66.37
2022-11-07T13:58:22.641Z,69.56
2022-11-07T14:01:24.947Z,70.82
2022-11-07T14:04:28.382Z,71.85
2022-11-07T14:07:41.272Z,62.20
2022-11-07T14:10:48.178Z,69.81
2022-11-07T14:13:53.674Z,66.79
2022-11-07T14:17:00.655Z,65.35
2022-11-07T14:20:14.233Z,68.94
2022-11-07T14:23:16.955Z,70.29
2022-11-07T14:26:23.300Z,67.71
2022-11-07T14:29:25.413Z,72.09
2022-11-07T14:32:31.736Z,71.83
2022-11-07T14:35:35.231Z,71.54
2022-11-07T14:38:44.743Z,71.78
2022-11-07T14:41:46.986Z,67.00
2022-11-07T14:44:55.372Z,66.87
2022-11-07T14:47:58.186Z,68.75
2022-11-07T14:51:00.277Z,66.87
2022-11-07T14:54:09.924Z,67.78
2022-11-07T14:57:12.484Z,63.35
2022-11-07T15:00:17.665Z,62.33
2022-11-07T15:03:22.450Z,64.61
2022-11-07T15:06:40.841Z,64.42
2022-11-07T15:09:42.937Z,66.03
2022-11-07T15:12:53.350Z,63.70
2022-11-07T15:16:07.070Z,63.01
2022-11-07T15:19:16.127Z,68.48
2022-11-07T15:22:26.087Z,68.46
2022-11-07T15:25:40.197Z,68.63
2022-11-07T15:28:42.145Z,69.79
2022-11-07T15:31:50.422Z,70.42
2022-11-07T15:38:23.274Z,72.50
2022-11-07T15:41:25.465Z,72.42
2022-11-07T15:44:27.645Z,73.45
2022-11-07T15:47:29.760Z,74.03
2022-11-07T15:50:32.299Z,74.48
2022-11-07T15:53:34.451Z,75.03
2022-11-07T15:56:36.680Z,75.88
2022-11-07T15:59:39.012Z,76.28
2022-11-07T16:02:41.455Z,76.93
2022-11-07T16:05:45.220Z,77.68
2022-11-07T16:08:47.372Z,78.15
2022-11-07T16:11:49.457Z,78.28
2022-11-07T16:14:51.742Z,78.77
2022-11-07T16:17:53.870Z,78.30
2022-11-07T16:20:56.004Z,79.09
2022-11-07T16:23:58.364Z,78.20
2022-11-07T16:27:01.277Z,78.77
2022-11-07T16:30:07.024Z,78.92
2022-11-07T16:33:10.929Z,78.21
2022-11-07T16:36:25.357Z,78.48
2022-11-07T16:39:27.441Z,78.72
2022-11-07T16:42:29.548Z,78.80
2022-11-07T16:45:31.645Z,78.98
2022-11-07T16:48:35.948Z,79.22
2022-11-07T16:51:38.030Z,79.39
2022-11-07T16:54:40.112Z,79.33
2022-11-07T16:57:42.370Z,79.33
2022-11-07T17:00:44.598Z,79.31
2022-11-07T17:03:46.736Z,79.98
2022-11-07T17:06:48.893Z,79.93
2022-11-07T17:09:51.128Z,80.66
2022-11-07T17:12:53.254Z,80.97
2022-11-07T17:15:55.401Z,81.75
2022-11-07T17:18:57.525Z,81.48
2022-11-07T17:22:01.397Z,82.38
2022-11-07T17:25:03.642Z,82.54
2022-11-07T17:28:06.745Z,83.02
2022-11-07T17:31:09.086Z,83.57
2022-11-07T17:34:11.440Z,83.60
2022-11-07T17:37:17.940Z,83.06
2022-11-07T17:40:26.789Z,84.25
2022-11-07T17:43:28.859Z,83.70
2022-11-07T17:46:33.212Z,86.68
2022-11-07T17:49:35.456Z,87.07
2022-11-07T17:52:37.734Z,89.40
2022-11-07T17:55:39.808Z,89.77
2022-11-07T17:58:41.863Z,90.23
2022-11-07T18:01:44.325Z,90.88
2022-11-07T18:04:46.761Z,91.05
2022-11-07T18:07:48.886Z,91.62
2022-11-07T18:10:56.300Z,91.98
2022-11-07T18:13:59.483Z,91.41
2022-11-07T18:17:01.626Z,92.08
2022-11-07T18:20:04.343Z,92.86
2022-11-07T18:23:06.446Z,94.02
2022-11-07T18:26:20.638Z,94.08
2022-11-07T18:29:22.822Z,93.14
2022-11-07T18:32:24.895Z,92.95
2022-11-07T18:35:26.974Z,93.25
2022-11-07T18:38:29.164Z,93.18
2022-11-07T18:41:31.237Z,92.71
2022-11-07T18:44:33.262Z,93.40
2022-11-07T18:47:35.329Z,93.00
2022-11-07T18:50:39.902Z,92.57
2022-11-07T18:53:42.856Z,92.25
2022-11-07T18:56:45.674Z,91.70
2022-11-07T18:59:47.749Z,91.47
2022-11-07T19:02:50.838Z,91.02
2022-11-07T19:05:59.889Z,91.17
2022-11-07T19:09:02.077Z,90.47
2022-11-07T19:12:04.394Z,90.34
2022-11-07T19:15:07.421Z,91.21
2022-11-07T19:18:09.474Z,90.35
2022-11-07T19:21:18.905Z,89.90
2022-11-07T19:24:27.085Z,89.95
2022-11-07T19:27:30.930Z,88.57
2022-11-07T19:30:36.042Z,88.59
2022-11-07T19:33:38.388Z,88.34
2022-11-07T19:36:40.460Z,88.60
2022-11-07T19:39:42.589Z,87.80
2022-11-07T19:42:44.655Z,87.30
2022-11-07T19:45:48.038Z,87.19
2022-11-07T19:48:50.443Z,87.25
2022-11-07T19:51:52.566Z,87.11
2022-11-07T19:54:54.763Z,87.66
2022-11-07T19:57:56.967Z,87.17
2022-11-07T20:00:59.172Z,86.43
2022-11-07T20:04:01.597Z,86.27
2022-11-07T20:07:04.117Z,86.43
2022-11-07T20:10:08.720Z,86.94
2022-11-07T20:13:10.785Z,86.57
2022-11-07T20:16:12.864Z,86.17
2022-11-07T20:19:16.272Z,87.04
2022-11-07T20:22:18.392Z,87.00
2022-11-07T20:25:20.465Z,86.98
2022-11-07T20:28:22.871Z,86.68
2022-11-07T20:31:33.196Z,87.13
2022-11-07T20:34:35.289Z,87.30
2022-11-07T20:37:37.404Z,87.27
2022-11-07T20:40:39.462Z,87.18
2022-11-07T20:43:43.673Z,86.24
2022-11-07T20:46:45.968Z,86.68
2022-11-07T20:49:48.039Z,88.17
2022-11-07T20:52:50.108Z,87.50
2022-11-07T20:55:52.155Z,87.61
2022-11-07T20:58:54.325Z,86.83
2022-11-07T21:02:01.765Z,86.98
2022-11-07T21:05:21.147Z,85.55
2022-11-07T21:08:23.261Z,85.31
2022-11-07T21:11:25.487Z,84.84
2022-11-07T21:14:27.748Z,84.84
2022-11-07T21:17:29.866Z,85.12
2022-11-07T21:20:31.963Z,84.16
2022-11-07T21:23:34.343Z,84.21
2022-11-07T21:26:38.998Z,84.22
2022-11-07T21:29:41.090Z,84.73
2022-11-07T21:32:43.196Z,84.00
2022-11-07T21:35:45.252Z,84.73
2022-11-07T21:38:47.456Z,84.09
2022-11-07T21:41:49.541Z,84.28
2022-11-07T21:44:51.651Z,84.79
2022-11-07T21:47:53.714Z,83.67
2022-11-07T21:50:55.752Z,85.56
2022-11-07T21:53:58.326Z,84.65
2022-11-07T21:57:00.413Z,83.82
2022-11-07T22:00:04.511Z,84.24
2022-11-07T22:03:06.516Z,83.89
2022-11-07T22:06:10.426Z,83.86
2022-11-07T22:09:18.008Z,83.56
2022-11-07T22:12:19.944Z,83.98
2022-11-07T22:15:22.006Z,83.72
2022-11-07T22:18:24.054Z,83.57
2022-11-07T22:21:26.099Z,84.00
2022-11-07T22:24:28.213Z,85.16
2022-11-07T22:27:30.233Z,84.95
2022-11-07T22:30:32.341Z,84.71
2022-11-07T22:33:34.550Z,83.52
2022-11-07T22:36:36.668Z,83.73
2022-11-07T22:39:38.698Z,83.75
2022-11-07T22:42:40.751Z,84.79
2022-11-07T22:45:42.820Z,84.79
2022-11-07T22:48:45.529Z,85.75
2022-11-07T22:51:47.768Z,85.69
2022-11-07T22:54:49.826Z,85.47
2022-11-07T22:57:54.856Z,85.14
2022-11-07T23:00:56.944Z,85.79
2022-11-07T23:03:59.297Z,85.58
2022-11-07T23:07:01.359Z,85.96
2022-11-07T23:10:04.515Z,84.39
2022-11-07T23:13:06.589Z,85.61
2022-11-07T23:16:22.749Z,86.01
2022-11-07T23:19:25.729Z,85.90
2022-11-07T23:22:32.171Z,86.78
2022-11-07T23:25:36.189Z,86.41
2022-11-07T23:28:39.104Z,86.50
2022-11-07T23:31:45.511Z,86.39
2022-11-07T23:34:47.608Z,87.01
2022-11-07T23:37:50.077Z,87.19
2022-11-07T23:40:52.105Z,86.79
2022-11-07T23:43:54.145Z,86.73
2022-11-07T23:47:15.072Z,87.39
2022-11-07T23:50:36.045Z,87.52
2022-11-07T23:53:57.045Z,87.36
2022-11-07T23:56:59.124Z,87.35
